createdAt,value
2023-04-23T00:00:46.219Z,1.70
2023-04-23T00:03:16.402Z,2.00
2023-04-23T00:05:46.129Z,1.98
2023-04-23T00:08:14.879Z,1.98
2023-04-23T00:10:43.500Z,1.80
2023-04-23T00:13:12.169Z,2.13
2023-04-23T00:15:42.267Z,2.00
2023-04-23T00:18:10.586Z,2.03
2023-04-23T00:20:38.891Z,2.22
2023-04-23T00:23:07.172Z,1.88
2023-04-23T00:25:35.382Z,1.90
2023-04-23T00:28:03.949Z,2.20
2023-04-23T00:30:32.559Z,1.95
2023-04-23T00:33:02.472Z,1.98
2023-04-23T00:35:30.957Z,2.08
2023-04-23T00:37:59.240Z,1.90
2023-04-23T00:40:27.536Z,2.10
2023-04-23T00:42:58.341Z,1.80
2023-04-23T00:45:26.813Z,2.17
2023-04-23T00:47:55.572Z,2.13
2023-04-23T00:50:25.950Z,2.30
2023-04-23T00:52:54.242Z,2.40
2023-04-23T00:55:22.575Z,2.33
2023-04-23T00:57:51.540Z,2.30
2023-04-23T01:00:22.863Z,2.20
2023-04-23T01:02:53.373Z,2.25
2023-04-23T01:05:25.587Z,2.20
2023-04-23T01:07:54.285Z,2.25
2023-04-23T01:10:22.668Z,2.30
2023-04-23T01:12:51.940Z,2.25
2023-04-23T01:15:20.085Z,2.17
2023-04-23T01:17:48.383Z,2.75
2023-04-23T01:20:17.071Z,1.90
2023-04-23T01:22:47.199Z,2.40
2023-04-23T01:25:15.577Z,2.38
2023-04-23T01:27:43.912Z,2.03
2023-04-23T01:30:13.617Z,2.60
2023-04-23T01:32:42.601Z,2.78
2023-04-23T01:35:13.489Z,2.53
2023-04-23T01:37:42.358Z,2.13
2023-04-23T01:40:12.919Z,2.00
2023-04-23T01:42:41.786Z,2.30
2023-04-23T01:45:11.305Z,2.30
2023-04-23T01:47:39.561Z,2.25
2023-04-23T01:50:08.852Z,2.55
2023-04-23T01:52:37.801Z,2.42
2023-04-23T01:55:06.750Z,2.58
2023-04-23T01:57:36.912Z,2.50
2023-04-23T02:00:09.448Z,2.40
2023-04-23T02:02:37.908Z,2.55
2023-04-23T02:05:11.113Z,2.83
2023-04-23T02:07:39.715Z,2.97
2023-04-23T02:10:09.389Z,2.78
2023-04-23T02:12:40.349Z,2.60
2023-04-23T02:15:10.548Z,2.28
2023-04-23T02:17:40.418Z,2.60
2023-04-23T02:20:10.711Z,2.53
2023-04-23T02:22:39.345Z,2.58
2023-04-23T02:25:11.256Z,2.63
2023-04-23T02:27:41.657Z,2.22
2023-04-23T02:30:12.799Z,3.30
2023-04-23T02:32:44.150Z,2.55
2023-04-23T02:35:13.881Z,3.20
2023-04-23T02:37:45.216Z,3.00
2023-04-23T02:40:15.051Z,3.13
2023-04-23T02:42:49.356Z,3.10
2023-04-23T02:45:17.968Z,3.00
2023-04-23T02:47:48.009Z,2.95
2023-04-23T02:50:16.723Z,3.10
2023-04-23T02:52:47.123Z,2.75
2023-04-23T02:55:18.315Z,3.08
2023-04-23T02:58:04.051Z,3.13
2023-04-23T03:00:39.273Z,2.70
2023-04-23T03:03:13.267Z,3.05
2023-04-23T03:05:53.777Z,2.78
2023-04-23T03:08:22.236Z,3.20
2023-04-23T03:10:54.261Z,3.15
2023-04-23T03:13:24.690Z,3.22
2023-04-23T03:15:58.771Z,2.92
2023-04-23T03:18:33.400Z,2.88
2023-04-23T03:21:10.310Z,3.33
2023-04-23T03:23:42.633Z,3.10
2023-04-23T03:26:17.631Z,3.53
2023-04-23T03:28:50.324Z,2.90
2023-04-23T03:31:24.328Z,3.40
2023-04-23T03:33:57.373Z,2.80
2023-04-23T03:36:34.258Z,2.97
2023-04-23T03:39:12.359Z,2.95
2023-04-23T03:41:41.000Z,3.25
2023-04-23T03:44:21.499Z,3.05
2023-04-23T03:46:54.404Z,2.67
2023-04-23T03:49:30.712Z,2.90
2023-04-23T03:52:05.629Z,3.08
2023-04-23T03:54:58.490Z,3.10
2023-04-23T03:57:33.415Z,3.10
2023-04-23T04:00:12.242Z,3.33
2023-04-23T04:02:58.438Z,3.30
2023-04-23T04:05:32.384Z,3.60
2023-04-23T04:08:04.976Z,3.63
2023-04-23T04:10:38.139Z,3.67
2023-04-23T04:13:09.518Z,3.53
2023-04-23T04:15:41.337Z,3.80
2023-04-23T04:18:18.370Z,4.10
2023-04-23T04:21:10.404Z,4.10
2023-04-23T04:28:02.096Z,4.05
2023-04-23T04:30:57.918Z,3.97
2023-04-23T05:06:32.948Z,4.70
2023-04-23T05:09:19.406Z,4.20
2023-04-23T05:11:53.807Z,3.95
2023-04-23T05:14:27.117Z,4.82
2023-04-23T05:16:55.841Z,4.50
2023-04-23T05:19:36.653Z,4.80
2023-04-23T05:22:19.077Z,4.63
2023-04-23T05:25:07.050Z,4.43
2023-04-23T05:27:40.551Z,5.28
2023-04-23T05:30:14.198Z,4.85
2023-04-23T05:35:39.565Z,4.13
2023-04-23T05:38:16.133Z,4.00
2023-04-23T05:40:47.883Z,4.43
2023-04-23T05:43:16.697Z,4.50
2023-04-23T05:45:51.650Z,4.45
2023-04-23T05:48:21.962Z,4.13
2023-04-23T05:50:53.448Z,4.43
2023-04-23T05:53:39.058Z,4.90
2023-04-23T05:56:09.291Z,4.13
2023-04-23T05:58:43.370Z,4.47
2023-04-23T06:01:19.651Z,4.22
2023-04-23T06:03:49.419Z,4.05
2023-04-23T06:06:22.073Z,4.03
2023-04-23T06:08:54.022Z,3.83
2023-04-23T06:11:25.082Z,4.03
2023-04-23T06:13:55.940Z,3.90
2023-04-23T06:16:26.159Z,4.32
2023-04-23T06:19:09.912Z,4.80
2023-04-23T06:21:38.308Z,3.72
2023-04-23T06:24:09.527Z,4.07
2023-04-23T06:26:40.748Z,4.07
2023-04-23T06:29:12.737Z,3.72
2023-04-23T06:32:05.690Z,4.05
2023-04-23T06:35:00.371Z,3.80
2023-04-23T06:37:33.362Z,3.92
2023-04-23T06:40:05.277Z,3.30
2023-04-23T06:42:50.736Z,3.72
2023-04-23T06:45:21.624Z,3.50
2023-04-23T06:47:51.484Z,3.20
2023-04-23T06:50:19.878Z,3.35
2023-04-23T06:52:50.465Z,3.47
2023-04-23T06:55:19.084Z,3.10
2023-04-23T06:57:47.473Z,3.30
2023-04-23T07:00:18.954Z,3.60
2023-04-23T07:02:47.651Z,3.25
2023-04-23T07:05:32.187Z,3.20
2023-04-23T07:08:10.335Z,3.20
2023-04-23T07:10:40.842Z,2.80
2023-04-23T07:13:12.084Z,2.80
2023-04-23T07:15:44.810Z,2.83
2023-04-23T07:18:18.143Z,3.17
2023-04-23T07:20:49.415Z,2.85
2023-04-23T07:23:21.086Z,2.88
2023-04-23T07:25:51.315Z,2.33
2023-04-23T07:28:19.873Z,2.03
2023-04-23T07:30:52.578Z,2.40
2023-04-23T07:33:25.458Z,2.60
2023-04-23T07:36:03.788Z,2.73
2023-04-23T07:38:52.622Z,2.70
2023-04-23T07:44:42.636Z,2.47
2023-04-23T07:47:46.091Z,2.50
2023-04-23T07:50:23.130Z,2.30
2023-04-23T07:53:02.332Z,2.50
2023-04-23T07:55:37.900Z,2.22
2023-04-23T07:58:11.269Z,2.05
2023-04-23T08:01:01.554Z,2.10
2023-04-23T08:03:30.069Z,2.00
2023-04-23T08:05:58.532Z,2.40
2023-04-23T08:08:30.689Z,1.85
2023-04-23T08:11:03.933Z,2.47
2023-04-23T08:13:32.212Z,2.40
2023-04-23T08:16:02.556Z,2.25
2023-04-23T08:18:36.925Z,2.10
2023-04-23T08:21:08.240Z,2.05
2023-04-23T08:23:45.547Z,2.00
2023-04-23T08:26:14.368Z,2.15
2023-04-23T08:28:43.666Z,1.95
2023-04-23T08:31:25.903Z,1.80
2023-04-23T08:33:55.092Z,2.27
2023-04-23T08:36:23.558Z,2.00
2023-04-23T08:38:53.579Z,2.30
2023-04-23T08:41:24.854Z,2.08
2023-04-23T08:44:02.100Z,2.47
2023-04-23T08:46:33.069Z,2.00
2023-04-23T08:49:05.061Z,2.00
2023-04-23T08:51:37.725Z,1.90
2023-04-23T08:54:13.606Z,1.60
2023-04-23T08:56:42.907Z,2.13
2023-04-23T08:59:14.332Z,1.90
2023-04-23T09:01:43.900Z,1.90
2023-04-23T09:04:16.980Z,1.63
2023-04-23T09:06:47.275Z,1.88
2023-04-23T09:09:25.801Z,1.63
2023-04-23T09:11:55.084Z,1.50
2023-04-23T09:14:26.741Z,1.67
2023-04-23T09:16:56.944Z,1.90
2023-04-23T09:19:32.023Z,2.03
2023-04-23T09:22:02.248Z,1.90
2023-04-23T09:24:32.213Z,2.28
2023-04-23T09:27:00.648Z,1.85
2023-04-23T09:29:28.672Z,1.83
2023-04-23T09:32:04.440Z,1.90
2023-04-23T09:34:39.392Z,2.08
2023-04-23T09:37:11.837Z,2.10
2023-04-23T09:39:44.316Z,1.98
2023-04-23T09:42:14.050Z,1.98
2023-04-23T09:44:51.838Z,2.00
2023-04-23T09:47:21.662Z,2.08
2023-04-23T09:49:51.893Z,1.88
2023-04-23T09:52:21.249Z,2.20
2023-04-23T09:54:52.805Z,1.95
2023-04-23T09:57:21.342Z,2.55
2023-04-23T09:59:57.228Z,2.10
2023-04-23T10:02:39.970Z,2.13
2023-04-23T10:05:23.491Z,2.30
2023-04-23T10:10:22.579Z,2.20
2023-04-23T10:12:55.233Z,1.90
2023-04-23T10:15:28.419Z,2.00
2023-04-23T10:17:57.297Z,2.00
2023-04-23T10:20:26.150Z,2.08
2023-04-23T10:22:56.578Z,1.90
2023-04-23T10:25:27.293Z,1.98
2023-04-23T10:27:57.557Z,1.80
2023-04-23T10:30:26.012Z,1.73
2023-04-23T10:32:55.336Z,1.88
2023-04-23T10:35:23.666Z,2.00
2023-04-23T10:37:52.175Z,1.63
2023-04-23T10:40:26.174Z,1.75
2023-04-23T10:42:56.908Z,2.55
2023-04-23T10:45:25.909Z,2.45
2023-04-23T10:47:56.610Z,1.92
2023-04-23T10:50:26.879Z,2.47
2023-04-23T10:52:57.364Z,2.00
2023-04-23T10:55:28.034Z,1.67
2023-04-23T10:58:03.381Z,1.92
2023-04-23T11:00:47.524Z,2.28
2023-04-23T11:03:33.343Z,1.77
2023-04-23T11:06:03.980Z,1.80
2023-04-23T11:08:33.548Z,2.63
2023-04-23T11:11:02.960Z,2.28
2023-04-23T11:13:32.992Z,1.33
2023-04-23T11:16:18.761Z,1.55
2023-04-23T11:18:59.888Z,1.65
2023-04-23T11:22:02.812Z,1.75
2023-04-23T11:24:32.731Z,1.40
2023-04-23T11:27:01.554Z,1.40
2023-04-23T11:29:31.536Z,1.20
2023-04-23T11:32:03.078Z,1.70
2023-04-23T11:34:33.562Z,1.40
2023-04-23T11:37:05.084Z,1.80
2023-04-23T11:39:34.047Z,1.33
2023-04-23T11:42:03.739Z,1.40
2023-04-23T11:44:34.041Z,1.20
2023-04-23T11:47:03.505Z,1.30
2023-04-23T11:49:32.005Z,1.30
2023-04-23T11:52:06.132Z,1.35
2023-04-23T11:54:37.481Z,1.30
2023-04-23T11:57:06.902Z,1.23
2023-04-23T11:59:54.984Z,1.40
2023-04-23T12:02:26.346Z,1.15
2023-04-23T12:05:02.708Z,1.20
2023-04-23T12:07:33.979Z,1.10
2023-04-23T12:10:02.403Z,1.27
2023-04-23T12:12:35.962Z,1.00
2023-04-23T12:17:39.421Z,1.10
2023-04-23T12:20:16.094Z,1.00
2023-04-23T12:22:44.384Z,1.08
2023-04-23T12:25:12.902Z,1.05
2023-04-23T12:27:47.104Z,1.17
2023-04-23T12:30:17.796Z,1.40
2023-04-23T12:32:46.476Z,1.35
2023-04-23T12:35:14.782Z,0.90
2023-04-23T12:37:43.224Z,1.00
2023-04-23T12:40:12.461Z,1.30
2023-04-23T12:42:40.693Z,1.10
2023-04-23T12:45:11.327Z,1.05
2023-04-23T12:47:41.284Z,1.20
2023-04-23T12:50:10.537Z,0.98
2023-04-23T12:52:42.003Z,1.13
2023-04-23T12:55:10.516Z,1.40
2023-04-23T12:57:38.903Z,1.25
2023-04-23T13:00:09.171Z,1.20
2023-04-23T13:02:37.857Z,1.00
2023-04-23T13:05:08.724Z,1.20
2023-04-23T13:07:37.026Z,1.00
2023-04-23T13:10:05.790Z,1.15
2023-04-23T13:12:34.051Z,1.08
2023-04-23T13:15:02.391Z,1.02
2023-04-23T13:17:31.438Z,1.02
2023-04-23T13:20:00.377Z,1.00
2023-04-23T13:22:48.562Z,1.10
2023-04-23T13:25:26.742Z,0.88
2023-04-23T13:28:30.129Z,1.10
2023-04-23T13:31:14.068Z,1.00
2023-04-23T13:33:58.857Z,1.35
2023-04-23T13:36:32.445Z,1.17
2023-04-23T13:39:02.378Z,0.90
2023-04-23T13:41:31.046Z,0.93
2023-04-23T13:43:59.501Z,1.08
2023-04-23T13:46:28.073Z,0.95
2023-04-23T13:48:56.530Z,1.00
2023-04-23T13:51:34.756Z,0.82
2023-04-23T13:54:05.656Z,0.90
2023-04-23T13:56:38.907Z,1.20
2023-04-23T13:59:18.281Z,0.82
2023-04-23T14:01:50.010Z,1.08
2023-04-23T14:04:19.565Z,0.90
2023-04-23T14:06:51.489Z,0.90
2023-04-23T14:09:22.573Z,0.80
2023-04-23T14:11:51.452Z,1.00
2023-04-23T14:14:19.762Z,0.88
2023-04-23T14:16:48.250Z,1.13
2023-04-23T14:19:17.260Z,0.73
2023-04-23T14:21:46.517Z,1.00
2023-04-23T14:24:32.657Z,1.05
2023-04-23T14:27:06.067Z,0.90
2023-04-23T14:29:41.974Z,1.00
2023-04-23T14:32:12.619Z,0.80
2023-04-23T14:34:40.976Z,0.80
2023-04-23T14:37:12.580Z,1.00
2023-04-23T14:39:55.825Z,0.70
2023-04-23T14:42:38.383Z,0.80
2023-04-23T14:45:07.814Z,0.80
2023-04-23T14:47:43.484Z,0.80
2023-04-23T14:50:14.569Z,0.80
2023-04-23T14:52:49.991Z,0.80
2023-04-23T14:55:20.136Z,0.70
2023-04-23T14:57:54.647Z,0.70
2023-04-23T15:00:23.867Z,0.73
2023-04-23T15:02:52.284Z,0.75
2023-04-23T15:05:21.197Z,0.70
2023-04-23T15:07:49.397Z,0.40
2023-04-23T15:10:17.845Z,0.60
2023-04-23T15:12:58.032Z,0.73
2023-04-23T15:15:42.915Z,0.60
2023-04-23T15:18:12.844Z,0.85
2023-04-23T15:20:41.663Z,0.50
2023-04-23T15:23:10.867Z,0.80
2023-04-23T15:25:39.471Z,0.65
2023-04-23T15:28:10.162Z,0.80
2023-04-23T15:30:39.868Z,0.90
2023-04-23T15:33:08.280Z,0.65
2023-04-23T15:35:36.678Z,0.85
2023-04-23T15:38:07.103Z,0.75
2023-04-23T15:40:42.226Z,0.70
2023-04-23T15:43:14.973Z,0.95
2023-04-23T15:45:46.165Z,0.82
2023-04-23T15:48:15.703Z,0.60
2023-04-23T15:50:44.454Z,0.57
2023-04-23T15:53:13.373Z,0.70
2023-04-23T15:55:41.771Z,0.60
2023-04-23T15:58:13.267Z,0.50
2023-04-23T16:00:43.351Z,0.70
2023-04-23T16:03:11.811Z,0.90
2023-04-23T16:05:40.224Z,0.70
2023-04-23T16:08:09.074Z,0.60
2023-04-23T16:10:39.027Z,0.70
2023-04-23T16:13:07.657Z,0.60
2023-04-23T16:15:38.235Z,0.73
2023-04-23T16:18:08.348Z,0.60
2023-04-23T16:21:06.437Z,0.70
2023-04-23T16:23:38.193Z,0.88
2023-04-23T16:26:08.832Z,0.60
2023-04-23T16:28:37.328Z,0.60
2023-04-23T16:31:05.825Z,0.50
2023-04-23T16:33:45.980Z,0.60
2023-04-23T16:36:14.279Z,0.60
2023-04-23T16:38:47.353Z,0.60
2023-04-23T16:41:19.205Z,0.80
2023-04-23T16:43:47.776Z,2.78
2023-04-23T16:46:18.204Z,3.28
2023-04-23T16:48:48.442Z,3.08
2023-04-23T16:51:17.001Z,2.97
2023-04-23T16:53:45.360Z,1.52
2023-04-23T16:56:13.848Z,2.10
2023-04-23T16:58:42.193Z,1.17
2023-04-23T17:01:10.921Z,0.65
2023-04-23T17:03:39.555Z,0.70
2023-04-23T17:06:26.294Z,0.73
2023-04-23T17:08:54.827Z,0.80
2023-04-23T17:11:23.309Z,0.70
2023-04-23T17:13:52.426Z,0.70
2023-04-23T17:16:20.927Z,0.90
2023-04-23T17:18:49.583Z,0.60
2023-04-23T17:21:19.465Z,0.68
2023-04-23T17:23:48.076Z,0.60
2023-04-23T17:26:16.535Z,0.68
2023-04-23T17:28:44.774Z,0.90
2023-04-23T17:31:13.093Z,0.63
2023-04-23T17:33:43.611Z,0.75
2023-04-23T17:36:13.377Z,0.88
2023-04-23T17:38:45.951Z,0.70
2023-04-23T17:41:14.335Z,0.70
2023-04-23T17:43:42.779Z,0.80
2023-04-23T17:46:11.427Z,0.60
2023-04-23T17:48:40.726Z,0.70
2023-04-23T17:51:09.195Z,0.68
2023-04-23T17:53:37.855Z,0.60
2023-04-23T17:56:07.991Z,0.80
2023-04-23T17:58:47.496Z,0.80
2023-04-23T18:01:17.775Z,0.68
2023-04-23T18:03:48.154Z,0.80
2023-04-23T18:06:16.796Z,0.90
2023-04-23T18:08:45.101Z,1.05
2023-04-23T18:11:14.764Z,1.20
2023-04-23T18:13:43.804Z,0.90
2023-04-23T18:16:12.150Z,0.98
2023-04-23T18:18:43.719Z,1.10
2023-04-23T18:21:15.210Z,0.90
2023-04-23T18:23:43.505Z,1.20
2023-04-23T18:26:14.169Z,1.30
2023-04-23T18:28:54.086Z,1.10
2023-04-23T18:31:25.353Z,1.17
2023-04-23T18:33:57.154Z,1.17
2023-04-23T18:36:27.509Z,1.23
2023-04-23T18:38:57.933Z,1.20
2023-04-23T18:41:28.453Z,1.08
2023-04-23T18:44:00.063Z,1.05
2023-04-23T18:46:30.883Z,1.00
2023-04-23T18:49:01.875Z,1.10
2023-04-23T18:51:41.674Z,1.02
2023-04-23T18:54:15.530Z,1.15
2023-04-23T18:56:43.933Z,0.90
2023-04-23T18:59:19.929Z,0.95
2023-04-23T19:01:50.676Z,1.00
2023-04-23T19:04:28.863Z,0.80
2023-04-23T19:07:03.554Z,1.10
2023-04-23T19:09:35.494Z,1.00
2023-04-23T19:12:22.536Z,1.20
2023-04-23T19:15:38.718Z,1.15
2023-04-23T19:18:29.584Z,1.23
2023-04-23T19:21:13.245Z,0.80
2023-04-23T19:24:01.059Z,1.00
2023-04-23T19:26:31.506Z,0.80
2023-04-23T19:29:00.144Z,0.90
2023-04-23T19:31:30.899Z,1.00
2023-04-23T19:34:16.730Z,0.70
2023-04-23T19:36:51.752Z,1.23
2023-04-23T19:39:27.135Z,0.90
2023-04-23T19:41:59.436Z,0.70
2023-04-23T19:44:32.286Z,0.82
2023-04-23T19:47:18.290Z,0.83
2023-04-23T19:49:57.194Z,1.00
2023-04-23T19:52:29.805Z,1.10
2023-04-23T19:54:59.661Z,1.05
2023-04-23T19:57:30.199Z,1.20
2023-04-23T20:00:01.135Z,1.20
2023-04-23T20:02:42.732Z,1.00
2023-04-23T20:08:29.783Z,0.90
2023-04-23T20:13:46.649Z,1.13
2023-04-23T20:16:17.935Z,1.30
2023-04-23T20:18:50.148Z,1.17
2023-04-23T20:21:21.125Z,1.08
2023-04-23T20:23:51.155Z,1.00
2023-04-23T20:26:21.452Z,0.85
2023-04-23T20:28:50.427Z,1.13
2023-04-23T20:31:22.893Z,0.85
2023-04-23T20:33:51.798Z,1.08
2023-04-23T20:36:22.517Z,1.10
2023-04-23T20:38:54.294Z,0.90
2023-04-23T20:41:26.324Z,0.88
2023-04-23T20:43:54.819Z,1.17
2023-04-23T20:46:23.887Z,1.13
2023-04-23T20:48:55.770Z,0.90
2023-04-23T20:51:28.702Z,0.98
2023-04-23T20:54:00.017Z,1.10
2023-04-23T20:56:34.024Z,0.93
2023-04-23T20:59:06.963Z,1.15
2023-04-23T21:01:44.425Z,1.00
2023-04-23T21:04:15.424Z,1.10
2023-04-23T21:06:53.782Z,0.88
2023-04-23T21:09:42.807Z,1.27
2023-04-23T21:12:11.684Z,1.10
2023-04-23T21:14:56.065Z,1.02
2023-04-23T21:17:24.983Z,1.08
2023-04-23T21:19:53.428Z,0.95
2023-04-23T21:22:27.531Z,0.80
2023-04-23T21:24:59.045Z,1.10
2023-04-23T21:27:34.207Z,1.10
2023-04-23T21:30:13.415Z,1.50
2023-04-23T21:32:47.350Z,1.20
2023-04-23T21:35:18.121Z,1.15
2023-04-23T21:37:50.780Z,1.00
2023-04-23T21:40:19.517Z,0.80
2023-04-23T21:42:47.896Z,1.52
2023-04-23T21:45:19.959Z,1.27
2023-04-23T21:47:49.373Z,1.08
2023-04-23T21:50:32.923Z,1.50
2023-04-23T21:53:10.970Z,1.67
2023-04-23T21:55:41.988Z,1.80
2023-04-23T22:00:42.718Z,1.63
2023-04-23T22:03:28.383Z,1.45
2023-04-23T22:06:07.382Z,1.30
2023-04-23T22:08:47.083Z,1.20
2023-04-23T22:11:35.097Z,1.27
2023-04-23T22:14:24.346Z,0.93
2023-04-23T22:16:55.829Z,1.30
2023-04-23T22:19:27.348Z,1.25
2023-04-23T22:21:57.959Z,1.15
2023-04-23T22:24:34.161Z,1.10
2023-04-23T22:27:06.853Z,1.30
2023-04-23T22:29:40.294Z,1.20
2023-04-23T22:32:09.069Z,0.98
2023-04-23T22:34:46.043Z,0.98
2023-04-23T22:37:14.456Z,1.13
2023-04-23T22:39:47.557Z,0.80
2023-04-23T22:42:17.527Z,1.00
2023-04-23T22:45:08.642Z,0.90
2023-04-23T22:47:51.307Z,0.90
2023-04-23T22:50:19.666Z,1.08
2023-04-23T22:52:48.292Z,1.00
2023-04-23T22:55:22.821Z,1.00
2023-04-23T22:57:58.186Z,0.85
2023-04-23T23:00:28.699Z,1.10
2023-04-23T23:03:04.316Z,1.00
2023-04-23T23:05:37.230Z,1.00
2023-04-23T23:08:06.899Z,1.00
2023-04-23T23:10:43.363Z,0.98
2023-04-23T23:13:22.764Z,0.82
2023-04-23T23:16:56.874Z,1.02
2023-04-23T23:19:28.300Z,1.00
2023-04-23T23:21:57.980Z,1.15
2023-04-23T23:24:28.854Z,0.77
2023-04-23T23:27:09.917Z,1.17
2023-04-23T23:29:42.057Z,1.02
2023-04-23T23:32:10.974Z,0.82
2023-04-23T23:34:42.819Z,0.90
2023-04-23T23:37:11.318Z,0.98
2023-04-23T23:39:40.051Z,0.90
2023-04-23T23:42:10.277Z,0.90
2023-04-23T23:44:38.836Z,1.00
2023-04-23T23:47:08.753Z,0.70
2023-04-23T23:49:39.034Z,0.80
2023-04-23T23:52:07.516Z,0.73
2023-04-23T23:54:36.137Z,0.63
2023-04-23T23:57:11.398Z,0.80
2023-04-23T23:59:39.578Z,0.68
